»·PEaware :: N9560W L52-L88

N9560W :: L52-L88

FLIGHT INFORMATION

Flight Status: Arrived
Operator: Privately registered:
United States
More flights under this callsign
Pilot: Younghoon C. (8418)
Aircraft: CESSNA 172 SKYHAWK
(C172)
More flights by this aircraft type
Origin: L52 Oceano Co
United States
Destination: L88 New Cuyama
United States
More flights between these airports :: More routes between these airports
Route: DCT
File this flight plan on PilotEdge
Remarks: TEST FLIGHT FOR MY HOME COCKPIT
Altitude:
(Current/Filed)
7,500ft
Speed:
(Current/Filed)
115kts
Departed: 13-Jan-18 12:54 AM
Arrived: 13-Jan-18 01:26 AM
Distance/Time
Traveled:
47nm/0:32
Distance/Time
To Go:
Arrived

Flight Plot

Page will automatically refresh every two minutes.


Map Options




Map Legend


Flown Route
Filed Route
Departure Airport
Arrival Airport
Navaid (VOR, NDB)
Fix

Horizontal Profiles

Position Reports

Time Latitude Longitude Heading Altitude Ground
Speed
13-Jan-18 00:44 35.102275 -120.622530 210 19ft 0kts
13-Jan-18 00:45 35.102275 -120.622530 210 19ft 0kts
13-Jan-18 00:46 35.102275 -120.622530 210 19ft 0kts
13-Jan-18 00:47 35.102275 -120.622530 210 19ft 0kts
13-Jan-18 00:48 35.102275 -120.622530 210 19ft 0kts
13-Jan-18 00:49 35.102713 -120.623504 304 19ft 12kts
13-Jan-18 00:50 35.103824 -120.625081 294 19ft 1kts
13-Jan-18 00:51 35.103890 -120.625107 143 19ft 0kts
13-Jan-18 00:52 35.103890 -120.625106 143 19ft 0kts
13-Jan-18 00:53 35.103890 -120.625106 143 19ft 0kts
13-Jan-18 00:54 35.103890 -120.625107 143 19ft 0kts
13-Jan-18 00:55 35.103890 -120.625107 143 19ft 0kts
13-Jan-18 00:56 35.103363 -120.625249 215 19ft 0kts
13-Jan-18 00:57 35.103361 -120.625252 217 19ft 0kts
13-Jan-18 00:58 35.103304 -120.625302 213 19ft 2kts
13-Jan-18 00:59 35.103052 -120.625142 118 19ft 7kts
13-Jan-18 01:00 35.092670 -120.608127 127 605ft 85kts
13-Jan-18 01:01 35.071548 -120.588028 148 1411ft 96kts
13-Jan-18 01:02 35.055645 -120.562591 118 2240ft 94kts
13-Jan-18 01:03 35.048078 -120.530423 94 2947ft 99kts
13-Jan-18 01:04 35.046101 -120.495390 89 3494ft 110kts
13-Jan-18 01:05 35.045654 -120.459813 89 4150ft 102kts
13-Jan-18 01:06 35.040474 -120.426554 92 4747ft 100kts
13-Jan-18 01:07 35.035359 -120.393879 116 5315ft 101kts
13-Jan-18 01:08 35.017318 -120.368322 105 5773ft 103kts
13-Jan-18 01:09 35.013614 -120.340462 88 6188ft 98kts
13-Jan-18 01:10 35.014356 -120.308611 88 6592ft 88kts
13-Jan-18 01:11 35.012626 -120.284044 90 6940ft 85kts
13-Jan-18 01:12 35.013636 -120.254423 83 7348ft 79kts
13-Jan-18 01:13 35.012811 -120.224657 86 7626ft 88kts
13-Jan-18 01:14 35.016317 -120.186339 86 7610ft 110kts
13-Jan-18 01:15 35.016377 -120.154918 86 7518ft 111kts
13-Jan-18 01:16 35.014237 -120.117279 99 7443ft 114kts
13-Jan-18 01:17 35.005782 -120.080384 103 7431ft 112kts
13-Jan-18 01:18 34.999693 -120.043158 89 7431ft 114kts
13-Jan-18 01:19 34.997936 -120.005578 94 7497ft 109kts
13-Jan-18 01:20 34.991982 -119.967726 96 7393ft 120kts
13-Jan-18 01:21 34.980737 -119.933264 119 7511ft 100kts
13-Jan-18 01:22 34.968068 -119.901876 109 7670ft 108kts
13-Jan-18 01:23 34.959666 -119.864517 105 7581ft 114kts
13-Jan-18 01:24 34.945858 -119.828993 105 6444ft 115kts
13-Jan-18 01:25 34.937584 -119.792555 94 5326ft 101kts
13-Jan-18 01:26 34.932374 -119.759662 105 4491ft 95kts
13-Jan-18 01:27 34.925298 -119.728203 84 3834ft 96kts
13-Jan-18 01:28 34.933470 -119.699846 81 3458ft 74kts
13-Jan-18 01:29 34.927705 -119.677529 112 3100ft 66kts
13-Jan-18 01:30 34.933787 -119.663250 334 2820ft 51kts
13-Jan-18 01:31 34.939183 -119.683583 285 2191ft 51kts
13-Jan-18 01:32 34.941730 -119.690067 281 2166ft 3kts
13-Jan-18 01:33 34.942874 -119.691067 56 2157ft 2kts
13-Jan-18 01:34 34.942522 -119.689942 170 2164ft 3kts
13-Jan-18 01:35 34.942462 -119.689941 182 2164ft 0kts
13-Jan-18 01:36 34.942462 -119.689941 182 2164ft 0kts
13-Jan-18 01:37 34.942463 -119.689941 179 2164ft 0kts
13-Jan-18 01:38 34.942463 -119.689941 179 2164ft 0kts
13-Jan-18 01:39 34.942463 -119.689941 179 2164ft 0kts
13-Jan-18 01:40 34.942463 -119.689941 179 2164ft 0kts

Navigation Log

Ident Type
Flight plan parsing failed, navigation log unavailable